sensor_id;sensor_type;location;lat;lon;timestamp;temperature;humidity
45837;DHT22;31548;51.420;-0.040;2023-04-25T00:01:03;6.70;99.90
45837;DHT22;31548;51.420;-0.040;2023-04-25T00:03:32;6.60;99.90
45837;DHT22;31548;51.420;-0.040;2023-04-25T00:06:00;6.70;99.90
45837;DHT22;31548;51.420;-0.040;2023-04-25T00:08:30;6.70;99.90
45837;DHT22;31548;51.420;-0.040;2023-04-25T00:10:58;6.70;99.90
45837;DHT22;31548;51.420;-0.040;2023-04-25T00:13:26;6.70;99.90
45837;DHT22;31548;51.420;-0.040;2023-04-25T00:15:53;6.70;99.90
45837;DHT22;31548;51.420;-0.040;2023-04-25T00:18:22;6.70;99.90
45837;DHT22;31548;51.420;-0.040;2023-04-25T00:20:49;6.60;99.90
45837;DHT22;31548;51.420;-0.040;2023-04-25T00:23:17;6.60;99.90
45837;DHT22;31548;51.420;-0.040;2023-04-25T00:25:49;6.50;99.90
45837;DHT22;31548;51.420;-0.040;2023-04-25T00:28:17;6.60;99.90
45837;DHT22;31548;51.420;-0.040;2023-04-25T00:30:45;6.50;99.90
45837;DHT22;31548;51.420;-0.040;2023-04-25T00:33:13;6.50;99.90
45837;DHT22;31548;51.420;-0.040;2023-04-25T00:35:41;6.40;99.90
45837;DHT22;31548;51.420;-0.040;2023-04-25T00:38:09;6.40;99.90
45837;DHT22;31548;51.420;-0.040;2023-04-25T00:40:37;6.30;99.90
45837;DHT22;31548;51.420;-0.040;2023-04-25T00:43:05;6.30;99.90
45837;DHT22;31548;51.420;-0.040;2023-04-25T00:45:38;6.30;99.90
45837;DHT22;31548;51.420;-0.040;2023-04-25T00:48:06;6.20;99.90
45837;DHT22;31548;51.420;-0.040;2023-04-25T00:50:35;6.20;99.90
45837;DHT22;31548;51.420;-0.040;2023-04-25T00:53:04;6.20;99.90
45837;DHT22;31548;51.420;-0.040;2023-04-25T00:55:32;6.10;99.90
45837;DHT22;31548;51.420;-0.040;2023-04-25T00:58:03;6.00;99.90
45837;DHT22;31548;51.420;-0.040;2023-04-25T01:00:32;6.00;99.90
45837;DHT22;31548;51.420;-0.040;2023-04-25T01:03:00;5.90;99.90
45837;DHT22;31548;51.420;-0.040;2023-04-25T01:05:31;5.90;99.90
45837;DHT22;31548;51.420;-0.040;2023-04-25T01:08:00;5.80;99.90
45837;DHT22;31548;51.420;-0.040;2023-04-25T01:10:29;5.70;99.90
45837;DHT22;31548;51.420;-0.040;2023-04-25T01:12:57;5.70;99.90
45837;DHT22;31548;51.420;-0.040;2023-04-25T01:15:25;5.70;99.90
45837;DHT22;31548;51.420;-0.040;2023-04-25T01:17:53;5.60;99.90
45837;DHT22;31548;51.420;-0.040;2023-04-25T01:20:23;5.60;99.90
45837;DHT22;31548;51.420;-0.040;2023-04-25T01:22:52;5.60;99.90
45837;DHT22;31548;51.420;-0.040;2023-04-25T01:25:22;5.50;99.90
45837;DHT22;31548;51.420;-0.040;2023-04-25T01:27:52;5.50;99.90
45837;DHT22;31548;51.420;-0.040;2023-04-25T01:30:20;5.50;99.90
45837;DHT22;31548;51.420;-0.040;2023-04-25T01:32:49;5.50;99.90
45837;DHT22;31548;51.420;-0.040;2023-04-25T01:35:17;5.50;99.90
45837;DHT22;31548;51.420;-0.040;2023-04-25T01:37:46;5.40;99.90
45837;DHT22;31548;51.420;-0.040;2023-04-25T01:40:14;5.40;99.90
45837;DHT22;31548;51.420;-0.040;2023-04-25T01:42:44;5.40;99.90
45837;DHT22;31548;51.420;-0.040;2023-04-25T01:45:13;5.30;99.90
45837;DHT22;31548;51.420;-0.040;2023-04-25T01:47:41;5.30;99.90
45837;DHT22;31548;51.420;-0.040;2023-04-25T01:50:11;5.20;99.90
45837;DHT22;31548;51.420;-0.040;2023-04-25T01:52:40;5.20;99.90
45837;DHT22;31548;51.420;-0.040;2023-04-25T01:55:09;5.20;99.90
45837;DHT22;31548;51.420;-0.040;2023-04-25T01:57:42;5.20;99.90
45837;DHT22;31548;51.420;-0.040;2023-04-25T02:00:11;5.10;99.90
45837;DHT22;31548;51.420;-0.040;2023-04-25T02:02:39;5.10;99.90
45837;DHT22;31548;51.420;-0.040;2023-04-25T02:05:17;5.10;99.90
45837;DHT22;31548;51.420;-0.040;2023-04-25T02:07:47;5.10;99.90
45837;DHT22;31548;51.420;-0.040;2023-04-25T02:10:15;5.10;99.90
45837;DHT22;31548;51.420;-0.040;2023-04-25T02:12:57;5.00;99.90
45837;DHT22;31548;51.420;-0.040;2023-04-25T02:15:48;5.00;99.90
45837;DHT22;31548;51.420;-0.040;2023-04-25T02:18:19;4.90;99.90
45837;DHT22;31548;51.420;-0.040;2023-04-25T02:20:48;4.90;99.90
45837;DHT22;31548;51.420;-0.040;2023-04-25T02:23:16;4.90;99.90
45837;DHT22;31548;51.420;-0.040;2023-04-25T02:25:46;4.90;99.90
45837;DHT22;31548;51.420;-0.040;2023-04-25T02:28:14;4.90;99.90
45837;DHT22;31548;51.420;-0.040;2023-04-25T02:30:42;4.80;99.90
45837;DHT22;31548;51.420;-0.040;2023-04-25T02:33:10;4.80;99.90
45837;DHT22;31548;51.420;-0.040;2023-04-25T02:35:38;4.70;99.90
45837;DHT22;31548;51.420;-0.040;2023-04-25T02:38:06;4.70;99.90
45837;DHT22;31548;51.420;-0.040;2023-04-25T02:40:33;4.70;99.90
45837;DHT22;31548;51.420;-0.040;2023-04-25T02:43:01;4.70;99.90
45837;DHT22;31548;51.420;-0.040;2023-04-25T02:45:29;4.70;99.90
45837;DHT22;31548;51.420;-0.040;2023-04-25T02:47:57;4.70;99.90
45837;DHT22;31548;51.420;-0.040;2023-04-25T02:50:25;4.70;99.90
45837;DHT22;31548;51.420;-0.040;2023-04-25T02:52:53;4.70;99.90
45837;DHT22;31548;51.420;-0.040;2023-04-25T02:55:27;4.60;99.90
45837;DHT22;31548;51.420;-0.040;2023-04-25T02:57:56;4.60;99.90
45837;DHT22;31548;51.420;-0.040;2023-04-25T03:00:41;4.50;99.90
45837;DHT22;31548;51.420;-0.040;2023-04-25T03:03:08;4.50;99.90
45837;DHT22;31548;51.420;-0.040;2023-04-25T03:05:37;4.40;99.90
45837;DHT22;31548;51.420;-0.040;2023-04-25T03:08:05;4.50;99.90
45837;DHT22;31548;51.420;-0.040;2023-04-25T03:10:34;4.50;99.90
45837;DHT22;31548;51.420;-0.040;2023-04-25T03:13:05;4.50;99.90
45837;DHT22;31548;51.420;-0.040;2023-04-25T03:15:34;4.40;99.90
45837;DHT22;31548;51.420;-0.040;2023-04-25T03:18:04;4.40;99.90
45837;DHT22;31548;51.420;-0.040;2023-04-25T03:20:32;4.50;99.90
45837;DHT22;31548;51.420;-0.040;2023-04-25T03:23:00;4.40;99.90
45837;DHT22;31548;51.420;-0.040;2023-04-25T03:25:29;4.40;99.90
45837;DHT22;31548;51.420;-0.040;2023-04-25T03:27:57;4.40;99.90
45837;DHT22;31548;51.420;-0.040;2023-04-25T03:30:25;4.40;99.90
45837;DHT22;31548;51.420;-0.040;2023-04-25T03:32:53;4.40;99.90
45837;DHT22;31548;51.420;-0.040;2023-04-25T03:35:22;4.40;99.90
45837;DHT22;31548;51.420;-0.040;2023-04-25T03:37:52;4.40;99.90
45837;DHT22;31548;51.420;-0.040;2023-04-25T03:40:26;4.40;99.90
45837;DHT22;31548;51.420;-0.040;2023-04-25T03:43:20;4.30;99.90
45837;DHT22;31548;51.420;-0.040;2023-04-25T03:45:57;4.30;99.90
45837;DHT22;31548;51.420;-0.040;2023-04-25T03:48:26;4.30;99.90
45837;DHT22;31548;51.420;-0.040;2023-04-25T03:50:54;4.20;99.90
45837;DHT22;31548;51.420;-0.040;2023-04-25T03:53:23;4.20;99.90
45837;DHT22;31548;51.420;-0.040;2023-04-25T03:56:18;4.20;99.90
45837;DHT22;31548;51.420;-0.040;2023-04-25T03:58:50;4.20;99.90
45837;DHT22;31548;51.420;-0.040;2023-04-25T04:01:20;4.20;99.90
45837;DHT22;31548;51.420;-0.040;2023-04-25T04:03:48;4.20;99.90
45837;DHT22;31548;51.420;-0.040;2023-04-25T04:06:17;4.10;99.90
45837;DHT22;31548;51.420;-0.040;2023-04-25T04:08:49;4.10;99.90
45837;DHT22;31548;51.420;-0.040;2023-04-25T04:11:17;4.10;99.90
45837;DHT22;31548;51.420;-0.040;2023-04-25T04:13:46;4.00;99.90
45837;DHT22;31548;51.420;-0.040;2023-04-25T04:16:14;4.10;99.90
45837;DHT22;31548;51.420;-0.040;2023-04-25T04:18:44;4.00;99.90
45837;DHT22;31548;51.420;-0.040;2023-04-25T04:21:13;4.00;99.90
45837;DHT22;31548;51.420;-0.040;2023-04-25T04:23:42;4.00;99.90
45837;DHT22;31548;51.420;-0.040;2023-04-25T04:26:10;4.00;99.90
45837;DHT22;31548;51.420;-0.040;2023-04-25T04:29:01;4.00;99.90
45837;DHT22;31548;51.420;-0.040;2023-04-25T04:31:41;4.00;99.90
45837;DHT22;31548;51.420;-0.040;2023-04-25T04:34:10;3.90;99.90
45837;DHT22;31548;51.420;-0.040;2023-04-25T04:36:39;3.90;99.90
45837;DHT22;31548;51.420;-0.040;2023-04-25T04:39:07;3.90;99.90
45837;DHT22;31548;51.420;-0.040;2023-04-25T04:41:57;3.90;99.90
45837;DHT22;31548;51.420;-0.040;2023-04-25T04:44:39;3.90;99.90
45837;DHT22;31548;51.420;-0.040;2023-04-25T04:47:33;3.90;99.90
45837;DHT22;31548;51.420;-0.040;2023-04-25T04:50:28;3.90;99.90
45837;DHT22;31548;51.420;-0.040;2023-04-25T04:53:19;3.80;99.90
45837;DHT22;31548;51.420;-0.040;2023-04-25T04:56:06;3.80;99.90
45837;DHT22;31548;51.420;-0.040;2023-04-25T04:58:59;3.80;99.90
45837;DHT22;31548;51.420;-0.040;2023-04-25T05:02:04;3.80;99.90
45837;DHT22;31548;51.420;-0.040;2023-04-25T05:05:01;3.80;99.90
45837;DHT22;31548;51.420;-0.040;2023-04-25T05:07:47;3.70;99.90
45837;DHT22;31548;51.420;-0.040;2023-04-25T05:10:30;3.70;99.90
45837;DHT22;31548;51.420;-0.040;2023-04-25T05:13:16;3.80;99.90
45837;DHT22;31548;51.420;-0.040;2023-04-25T05:16:16;3.80;99.90
45837;DHT22;31548;51.420;-0.040;2023-04-25T05:19:13;3.70;99.90
45837;DHT22;31548;51.420;-0.040;2023-04-25T05:22:02;3.80;99.90
45837;DHT22;31548;51.420;-0.040;2023-04-25T05:24:38;3.80;99.90
45837;DHT22;31548;51.420;-0.040;2023-04-25T05:27:30;3.70;99.90
45837;DHT22;31548;51.420;-0.040;2023-04-25T05:29:58;3.80;99.90
45837;DHT22;31548;51.420;-0.040;2023-04-25T05:32:32;3.80;99.90
45837;DHT22;31548;51.420;-0.040;2023-04-25T05:35:00;3.70;99.90
45837;DHT22;31548;51.420;-0.040;2023-04-25T05:37:33;3.80;99.90
45837;DHT22;31548;51.420;-0.040;2023-04-25T05:40:09;3.80;99.90
45837;DHT22;31548;51.420;-0.040;2023-04-25T05:42:43;3.80;99.90
45837;DHT22;31548;51.420;-0.040;2023-04-25T05:45:29;3.80;99.90
45837;DHT22;31548;51.420;-0.040;2023-04-25T05:48:03;3.80;99.90
45837;DHT22;31548;51.420;-0.040;2023-04-25T05:50:57;3.80;99.90
45837;DHT22;31548;51.420;-0.040;2023-04-25T05:53:54;3.90;99.90
45837;DHT22;31548;51.420;-0.040;2023-04-25T05:56:22;3.90;99.90
45837;DHT22;31548;51.420;-0.040;2023-04-25T05:58:52;3.90;99.90
45837;DHT22;31548;51.420;-0.040;2023-04-25T06:01:21;4.00;99.90
45837;DHT22;31548;51.420;-0.040;2023-04-25T06:03:49;4.00;99.90
45837;DHT22;31548;51.420;-0.040;2023-04-25T06:06:19;4.10;99.90
45837;DHT22;31548;51.420;-0.040;2023-04-25T06:08:47;4.10;99.90
45837;DHT22;31548;51.420;-0.040;2023-04-25T06:11:15;4.10;99.90
45837;DHT22;31548;51.420;-0.040;2023-04-25T06:13:43;4.10;99.90
45837;DHT22;31548;51.420;-0.040;2023-04-25T06:16:11;4.10;99.90
45837;DHT22;31548;51.420;-0.040;2023-04-25T06:18:40;4.10;99.90
45837;DHT22;31548;51.420;-0.040;2023-04-25T06:21:08;4.20;99.90
45837;DHT22;31548;51.420;-0.040;2023-04-25T06:23:37;4.20;99.90
45837;DHT22;31548;51.420;-0.040;2023-04-25T06:26:11;4.30;99.90
45837;DHT22;31548;51.420;-0.040;2023-04-25T06:28:42;4.30;99.90
45837;DHT22;31548;51.420;-0.040;2023-04-25T06:31:15;4.40;99.90
45837;DHT22;31548;51.420;-0.040;2023-04-25T06:33:44;4.40;99.90
45837;DHT22;31548;51.420;-0.040;2023-04-25T06:36:14;4.40;99.90
45837;DHT22;31548;51.420;-0.040;2023-04-25T06:38:44;4.40;99.90
45837;DHT22;31548;51.420;-0.040;2023-04-25T06:41:12;4.50;99.90
45837;DHT22;31548;51.420;-0.040;2023-04-25T06:43:41;4.50;99.90
45837;DHT22;31548;51.420;-0.040;2023-04-25T06:46:16;4.60;99.90
45837;DHT22;31548;51.420;-0.040;2023-04-25T06:48:46;4.60;99.90
45837;DHT22;31548;51.420;-0.040;2023-04-25T06:51:16;4.60;99.90
45837;DHT22;31548;51.420;-0.040;2023-04-25T06:53:45;4.70;99.90
45837;DHT22;31548;51.420;-0.040;2023-04-25T06:56:23;4.70;99.90
45837;DHT22;31548;51.420;-0.040;2023-04-25T06:58:58;4.70;99.90
45837;DHT22;31548;51.420;-0.040;2023-04-25T07:01:31;4.80;99.90
45837;DHT22;31548;51.420;-0.040;2023-04-25T07:04:01;4.80;99.90
45837;DHT22;31548;51.420;-0.040;2023-04-25T07:06:32;4.90;99.90
45837;DHT22;31548;51.420;-0.040;2023-04-25T07:09:00;4.90;99.90
45837;DHT22;31548;51.420;-0.040;2023-04-25T07:11:28;4.90;99.90
45837;DHT22;31548;51.420;-0.040;2023-04-25T07:13:56;4.90;99.90
45837;DHT22;31548;51.420;-0.040;2023-04-25T07:16:24;5.00;99.90
45837;DHT22;31548;51.420;-0.040;2023-04-25T07:18:52;5.10;99.90
45837;DHT22;31548;51.420;-0.040;2023-04-25T07:21:20;5.10;99.90
45837;DHT22;31548;51.420;-0.040;2023-04-25T07:23:50;5.20;99.90
45837;DHT22;31548;51.420;-0.040;2023-04-25T07:26:23;5.20;99.90
45837;DHT22;31548;51.420;-0.040;2023-04-25T07:29:13;5.30;99.90
45837;DHT22;31548;51.420;-0.040;2023-04-25T07:31:41;5.30;99.90
45837;DHT22;31548;51.420;-0.040;2023-04-25T07:34:09;5.40;99.90
45837;DHT22;31548;51.420;-0.040;2023-04-25T07:36:38;5.40;99.90
45837;DHT22;31548;51.420;-0.040;2023-04-25T07:39:06;5.50;99.90
45837;DHT22;31548;51.420;-0.040;2023-04-25T07:41:34;5.50;99.90
45837;DHT22;31548;51.420;-0.040;2023-04-25T07:44:02;5.60;99.90
45837;DHT22;31548;51.420;-0.040;2023-04-25T07:46:35;5.60;99.90
45837;DHT22;31548;51.420;-0.040;2023-04-25T07:49:04;5.60;99.90
45837;DHT22;31548;51.420;-0.040;2023-04-25T07:51:32;5.60;99.90
45837;DHT22;31548;51.420;-0.040;2023-04-25T07:54:05;5.70;99.90
45837;DHT22;31548;51.420;-0.040;2023-04-25T07:56:36;5.80;99.90
45837;DHT22;31548;51.420;-0.040;2023-04-25T07:59:19;5.80;99.90
45837;DHT22;31548;51.420;-0.040;2023-04-25T08:01:47;5.90;99.90
45837;DHT22;31548;51.420;-0.040;2023-04-25T08:04:16;6.00;99.90
45837;DHT22;31548;51.420;-0.040;2023-04-25T08:07:03;6.10;99.90
45837;DHT22;31548;51.420;-0.040;2023-04-25T08:09:38;6.20;99.90
45837;DHT22;31548;51.420;-0.040;2023-04-25T08:12:11;6.20;99.90
45837;DHT22;31548;51.420;-0.040;2023-04-25T08:14:41;6.30;99.90
45837;DHT22;31548;51.420;-0.040;2023-04-25T08:17:10;6.30;99.90
45837;DHT22;31548;51.420;-0.040;2023-04-25T08:19:40;6.30;99.90
45837;DHT22;31548;51.420;-0.040;2023-04-25T08:22:16;6.40;99.90
45837;DHT22;31548;51.420;-0.040;2023-04-25T08:24:51;6.50;99.90
45837;DHT22;31548;51.420;-0.040;2023-04-25T08:27:19;6.50;99.90
45837;DHT22;31548;51.420;-0.040;2023-04-25T08:29:48;6.60;99.90
45837;DHT22;31548;51.420;-0.040;2023-04-25T08:32:17;6.60;99.90
45837;DHT22;31548;51.420;-0.040;2023-04-25T08:34:59;6.70;99.90
45837;DHT22;31548;51.420;-0.040;2023-04-25T08:37:27;6.80;99.90
45837;DHT22;31548;51.420;-0.040;2023-04-25T08:40:13;6.80;99.90
45837;DHT22;31548;51.420;-0.040;2023-04-25T08:43:13;6.80;99.90
45837;DHT22;31548;51.420;-0.040;2023-04-25T08:45:42;6.90;99.90
45837;DHT22;31548;51.420;-0.040;2023-04-25T08:48:17;6.90;99.90
45837;DHT22;31548;51.420;-0.040;2023-04-25T08:50:45;7.00;99.90
45837;DHT22;31548;51.420;-0.040;2023-04-25T08:53:22;7.20;99.90
45837;DHT22;31548;51.420;-0.040;2023-04-25T08:55:50;7.20;99.90
45837;DHT22;31548;51.420;-0.040;2023-04-25T08:58:18;7.30;99.90
45837;DHT22;31548;51.420;-0.040;2023-04-25T09:00:48;7.30;99.90
45837;DHT22;31548;51.420;-0.040;2023-04-25T09:03:20;7.40;99.90
45837;DHT22;31548;51.420;-0.040;2023-04-25T09:05:49;7.40;99.90
45837;DHT22;31548;51.420;-0.040;2023-04-25T09:08:17;7.60;99.90
45837;DHT22;31548;51.420;-0.040;2023-04-25T09:10:45;7.50;99.90
45837;DHT22;31548;51.420;-0.040;2023-04-25T09:13:23;7.50;99.90
45837;DHT22;31548;51.420;-0.040;2023-04-25T09:16:11;7.40;99.90
45837;DHT22;31548;51.420;-0.040;2023-04-25T09:18:47;7.40;99.90
45837;DHT22;31548;51.420;-0.040;2023-04-25T09:21:17;7.50;99.90
45837;DHT22;31548;51.420;-0.040;2023-04-25T09:23:48;7.50;99.90
45837;DHT22;31548;51.420;-0.040;2023-04-25T09:26:18;7.50;99.90
45837;DHT22;31548;51.420;-0.040;2023-04-25T09:28:48;7.60;99.90
45837;DHT22;31548;51.420;-0.040;2023-04-25T09:31:22;7.70;99.90
45837;DHT22;31548;51.420;-0.040;2023-04-25T09:34:01;7.80;99.90
45837;DHT22;31548;51.420;-0.040;2023-04-25T09:36:37;7.80;99.90
45837;DHT22;31548;51.420;-0.040;2023-04-25T09:39:28;7.90;99.90
45837;DHT22;31548;51.420;-0.040;2023-04-25T09:42:09;7.90;99.90
45837;DHT22;31548;51.420;-0.040;2023-04-25T09:44:37;8.00;99.90
45837;DHT22;31548;51.420;-0.040;2023-04-25T09:47:10;7.90;99.90
45837;DHT22;31548;51.420;-0.040;2023-04-25T09:49:42;7.90;99.90
45837;DHT22;31548;51.420;-0.040;2023-04-25T09:52:18;7.80;99.90
45837;DHT22;31548;51.420;-0.040;2023-04-25T09:54:59;7.80;99.90
45837;DHT22;31548;51.420;-0.040;2023-04-25T09:57:33;7.70;99.90
45837;DHT22;31548;51.420;-0.040;2023-04-25T10:00:01;7.70;99.90
45837;DHT22;31548;51.420;-0.040;2023-04-25T10:02:43;8.00;99.90
45837;DHT22;31548;51.420;-0.040;2023-04-25T10:05:37;8.20;99.90
45837;DHT22;31548;51.420;-0.040;2023-04-25T10:08:06;8.50;99.90
45837;DHT22;31548;51.420;-0.040;2023-04-25T10:10:34;8.60;99.90
45837;DHT22;31548;51.420;-0.040;2023-04-25T10:13:04;8.80;99.90
45837;DHT22;31548;51.420;-0.040;2023-04-25T10:15:35;9.00;99.90
45837;DHT22;31548;51.420;-0.040;2023-04-25T10:18:06;9.10;99.90
45837;DHT22;31548;51.420;-0.040;2023-04-25T10:20:34;9.20;99.90
45837;DHT22;31548;51.420;-0.040;2023-04-25T10:23:13;9.40;99.90
45837;DHT22;31548;51.420;-0.040;2023-04-25T10:25:42;9.60;99.90
45837;DHT22;31548;51.420;-0.040;2023-04-25T10:28:10;9.50;99.90
45837;DHT22;31548;51.420;-0.040;2023-04-25T10:30:59;9.50;99.90
45837;DHT22;31548;51.420;-0.040;2023-04-25T10:33:37;9.50;99.90
45837;DHT22;31548;51.420;-0.040;2023-04-25T10:36:18;9.60;99.90
45837;DHT22;31548;51.420;-0.040;2023-04-25T10:38:47;9.90;99.90
45837;DHT22;31548;51.420;-0.040;2023-04-25T10:41:15;10.20;99.90
45837;DHT22;31548;51.420;-0.040;2023-04-25T10:43:47;10.20;99.90
45837;DHT22;31548;51.420;-0.040;2023-04-25T10:46:21;10.00;99.90
45837;DHT22;31548;51.420;-0.040;2023-04-25T10:54:06;9.60;99.90
45837;DHT22;31548;51.420;-0.040;2023-04-25T10:56:38;9.60;99.90
45837;DHT22;31548;51.420;-0.040;2023-04-25T10:59:19;9.70;99.90
45837;DHT22;31548;51.420;-0.040;2023-04-25T11:01:51;9.50;99.90
45837;DHT22;31548;51.420;-0.040;2023-04-25T11:04:29;9.40;99.90
45837;DHT22;31548;51.420;-0.040;2023-04-25T11:09:33;9.40;99.90
45837;DHT22;31548;51.420;-0.040;2023-04-25T11:12:01;9.60;99.90
45837;DHT22;31548;51.420;-0.040;2023-04-25T11:14:29;9.80;99.90
45837;DHT22;31548;51.420;-0.040;2023-04-25T11:16:59;9.80;99.90
45837;DHT22;31548;51.420;-0.040;2023-04-25T11:19:28;9.80;99.90
45837;DHT22;31548;51.420;-0.040;2023-04-25T11:21:58;9.60;99.90
45837;DHT22;31548;51.420;-0.040;2023-04-25T11:24:30;9.50;99.90
45837;DHT22;31548;51.420;-0.040;2023-04-25T11:26:59;9.50;99.90
45837;DHT22;31548;51.420;-0.040;2023-04-25T11:29:28;9.70;99.90
45837;DHT22;31548;51.420;-0.040;2023-04-25T11:31:55;9.70;99.90
45837;DHT22;31548;51.420;-0.040;2023-04-25T11:34:30;9.80;99.90
45837;DHT22;31548;51.420;-0.040;2023-04-25T11:36:58;10.00;99.90
45837;DHT22;31548;51.420;-0.040;2023-04-25T11:39:27;10.10;99.90
45837;DHT22;31548;51.420;-0.040;2023-04-25T11:41:54;10.60;99.90
45837;DHT22;31548;51.420;-0.040;2023-04-25T11:44:22;10.90;99.90
45837;DHT22;31548;51.420;-0.040;2023-04-25T11:46:50;11.10;99.90
45837;DHT22;31548;51.420;-0.040;2023-04-25T11:49:18;11.20;99.50
45837;DHT22;31548;51.420;-0.040;2023-04-25T11:51:47;11.10;98.90
45837;DHT22;31548;51.420;-0.040;2023-04-25T11:54:15;11.20;99.60
45837;DHT22;31548;51.420;-0.040;2023-04-25T11:56:44;11.10;98.90
45837;DHT22;31548;51.420;-0.040;2023-04-25T11:59:12;11.00;99.20
45837;DHT22;31548;51.420;-0.040;2023-04-25T12:01:41;10.90;99.00
45837;DHT22;31548;51.420;-0.040;2023-04-25T12:06:47;11.20;98.20
45837;DHT22;31548;51.420;-0.040;2023-04-25T12:09:20;11.10;98.00
45837;DHT22;31548;51.420;-0.040;2023-04-25T12:11:57;10.90;99.30
45837;DHT22;31548;51.420;-0.040;2023-04-25T12:14:35;10.90;99.70
45837;DHT22;31548;51.420;-0.040;2023-04-25T12:17:04;10.80;98.80
45837;DHT22;31548;51.420;-0.040;2023-04-25T12:19:36;10.80;97.90
45837;DHT22;31548;51.420;-0.040;2023-04-25T12:22:23;10.80;98.50
45837;DHT22;31548;51.420;-0.040;2023-04-25T12:24:51;10.90;98.50
45837;DHT22;31548;51.420;-0.040;2023-04-25T12:27:21;11.10;97.90
45837;DHT22;31548;51.420;-0.040;2023-04-25T12:29:54;11.60;99.00
45837;DHT22;31548;51.420;-0.040;2023-04-25T12:32:22;11.90;98.70
45837;DHT22;31548;51.420;-0.040;2023-04-25T12:34:52;11.90;97.40
45837;DHT22;31548;51.420;-0.040;2023-04-25T12:37:19;11.80;98.00
45837;DHT22;31548;51.420;-0.040;2023-04-25T12:39:48;11.70;99.00
45837;DHT22;31548;51.420;-0.040;2023-04-25T12:42:15;11.50;97.10
45837;DHT22;31548;51.420;-0.040;2023-04-25T12:44:43;11.50;97.10
45837;DHT22;31548;51.420;-0.040;2023-04-25T12:47:10;11.30;96.70
45837;DHT22;31548;51.420;-0.040;2023-04-25T12:49:38;11.40;97.40
45837;DHT22;31548;51.420;-0.040;2023-04-25T12:52:05;11.50;97.60
45837;DHT22;31548;51.420;-0.040;2023-04-25T12:54:33;11.50;97.50
45837;DHT22;31548;51.420;-0.040;2023-04-25T12:57:01;11.50;97.70
45837;DHT22;31548;51.420;-0.040;2023-04-25T12:59:30;11.70;97.90
45837;DHT22;31548;51.420;-0.040;2023-04-25T13:01:57;11.80;97.30
45837;DHT22;31548;51.420;-0.040;2023-04-25T13:04:25;11.80;96.90
45837;DHT22;31548;51.420;-0.040;2023-04-25T13:06:53;11.70;95.40
45837;DHT22;31548;51.420;-0.040;2023-04-25T13:09:20;12.00;95.30
45837;DHT22;31548;51.420;-0.040;2023-04-25T13:11:48;12.60;95.10
45837;DHT22;31548;51.420;-0.040;2023-04-25T13:14:16;12.70;96.20
45837;DHT22;31548;51.420;-0.040;2023-04-25T13:16:43;12.60;96.40
45837;DHT22;31548;51.420;-0.040;2023-04-25T13:19:11;12.20;95.10
45837;DHT22;31548;51.420;-0.040;2023-04-25T13:21:38;12.10;95.60
45837;DHT22;31548;51.420;-0.040;2023-04-25T13:24:06;12.00;97.80
45837;DHT22;31548;51.420;-0.040;2023-04-25T13:26:34;11.90;96.00
45837;DHT22;31548;51.420;-0.040;2023-04-25T13:29:01;11.90;95.80
45837;DHT22;31548;51.420;-0.040;2023-04-25T13:31:31;12.00;96.00
45837;DHT22;31548;51.420;-0.040;2023-04-25T13:33:58;11.90;96.90
45837;DHT22;31548;51.420;-0.040;2023-04-25T13:36:26;11.80;95.40
45837;DHT22;31548;51.420;-0.040;2023-04-25T13:38:54;11.70;95.90
45837;DHT22;31548;51.420;-0.040;2023-04-25T13:41:22;11.60;94.60
45837;DHT22;31548;51.420;-0.040;2023-04-25T13:43:49;11.80;95.30
45837;DHT22;31548;51.420;-0.040;2023-04-25T13:46:17;12.10;97.40
45837;DHT22;31548;51.420;-0.040;2023-04-25T13:48:48;12.50;96.00
45837;DHT22;31548;51.420;-0.040;2023-04-25T13:51:20;13.10;96.20
45837;DHT22;31548;51.420;-0.040;2023-04-25T13:53:47;13.80;96.30
45837;DHT22;31548;51.420;-0.040;2023-04-25T13:56:15;14.30;96.90
45837;DHT22;31548;51.420;-0.040;2023-04-25T13:58:43;14.70;95.20
45837;DHT22;31548;51.420;-0.040;2023-04-25T14:01:10;14.70;95.30
45837;DHT22;31548;51.420;-0.040;2023-04-25T14:03:37;14.40;93.60
45837;DHT22;31548;51.420;-0.040;2023-04-25T14:06:05;14.00;92.80
45837;DHT22;31548;51.420;-0.040;2023-04-25T14:08:33;13.60;93.00
45837;DHT22;31548;51.420;-0.040;2023-04-25T14:11:00;13.40;94.40
45837;DHT22;31548;51.420;-0.040;2023-04-25T14:13:28;12.90;93.50
45837;DHT22;31548;51.420;-0.040;2023-04-25T14:15:55;12.90;93.30
45837;DHT22;31548;51.420;-0.040;2023-04-25T14:18:23;12.80;95.00
45837;DHT22;31548;51.420;-0.040;2023-04-25T14:20:50;12.80;95.60
45837;DHT22;31548;51.420;-0.040;2023-04-25T14:23:18;12.70;95.30
45837;DHT22;31548;51.420;-0.040;2023-04-25T14:25:45;12.70;95.60
45837;DHT22;31548;51.420;-0.040;2023-04-25T14:28:13;12.70;95.30
45837;DHT22;31548;51.420;-0.040;2023-04-25T14:30:40;12.70;95.30
45837;DHT22;31548;51.420;-0.040;2023-04-25T14:33:08;12.70;95.20
45837;DHT22;31548;51.420;-0.040;2023-04-25T14:35:35;12.70;95.10
45837;DHT22;31548;51.420;-0.040;2023-04-25T14:38:03;12.60;94.10
45837;DHT22;31548;51.420;-0.040;2023-04-25T14:40:30;12.80;95.60
45837;DHT22;31548;51.420;-0.040;2023-04-25T14:42:57;12.90;94.80
45837;DHT22;31548;51.420;-0.040;2023-04-25T14:45:25;13.00;94.80
45837;DHT22;31548;51.420;-0.040;2023-04-25T14:47:52;13.20;94.60
45837;DHT22;31548;51.420;-0.040;2023-04-25T14:50:20;13.20;94.90
45837;DHT22;31548;51.420;-0.040;2023-04-25T14:52:48;13.30;94.00
45837;DHT22;31548;51.420;-0.040;2023-04-25T14:55:15;13.60;95.60
45837;DHT22;31548;51.420;-0.040;2023-04-25T14:57:43;13.80;94.40
45837;DHT22;31548;51.420;-0.040;2023-04-25T15:00:11;13.80;92.70
45837;DHT22;31548;51.420;-0.040;2023-04-25T15:02:42;14.00;93.60
45837;DHT22;31548;51.420;-0.040;2023-04-25T15:05:10;14.20;93.30
45837;DHT22;31548;51.420;-0.040;2023-04-25T15:07:37;14.40;92.60
45837;DHT22;31548;51.420;-0.040;2023-04-25T15:10:10;14.10;92.60
45837;DHT22;31548;51.420;-0.040;2023-04-25T15:12:43;14.10;92.40
45837;DHT22;31548;51.420;-0.040;2023-04-25T15:15:14;14.00;92.10
45837;DHT22;31548;51.420;-0.040;2023-04-25T15:17:51;14.10;93.90
45837;DHT22;31548;51.420;-0.040;2023-04-25T15:20:19;14.40;94.10
45837;DHT22;31548;51.420;-0.040;2023-04-25T15:22:46;14.50;92.90
45837;DHT22;31548;51.420;-0.040;2023-04-25T15:25:16;14.50;91.70
45837;DHT22;31548;51.420;-0.040;2023-04-25T15:27:46;14.40;91.80
45837;DHT22;31548;51.420;-0.040;2023-04-25T15:30:16;14.20;91.50
45837;DHT22;31548;51.420;-0.040;2023-04-25T15:32:47;14.20;92.80
45837;DHT22;31548;51.420;-0.040;2023-04-25T15:35:14;14.10;93.30
45837;DHT22;31548;51.420;-0.040;2023-04-25T15:37:42;14.10;92.50
45837;DHT22;31548;51.420;-0.040;2023-04-25T15:40:16;13.90;92.70
45837;DHT22;31548;51.420;-0.040;2023-04-25T15:42:45;13.80;94.90
45837;DHT22;31548;51.420;-0.040;2023-04-25T15:45:20;13.70;92.00
45837;DHT22;31548;51.420;-0.040;2023-04-25T15:47:48;13.70;93.40
45837;DHT22;31548;51.420;-0.040;2023-04-25T15:50:18;13.60;92.00
45837;DHT22;31548;51.420;-0.040;2023-04-25T15:52:48;13.40;92.20
45837;DHT22;31548;51.420;-0.040;2023-04-25T15:55:17;13.50;92.70
45837;DHT22;31548;51.420;-0.040;2023-04-25T15:57:44;13.40;92.60
45837;DHT22;31548;51.420;-0.040;2023-04-25T16:00:13;13.40;93.00
45837;DHT22;31548;51.420;-0.040;2023-04-25T16:02:42;13.30;91.80
45837;DHT22;31548;51.420;-0.040;2023-04-25T16:05:11;13.20;92.50